Time;durP1;ratioP1;P1;durP2;ratioP2;P2;SDS_P1;SDS_P2;PMS_P1;PMS_P2;Temp;Humidity;BMP_temperature;BMP_pressure;BME280_temperature;BME280_humidity;BME280_pressure;Samples;Min_cycle;Max_cycle;Signal;HPM_P1;HPM_P2
2021/05/03 00:00:26;;;;;;;2.20;1.20;;;;;;;14.26;78.82;97204.14;1725019;83;21135;-75
2021/05/03 00:02:55;;;;;;;3.33;1.40;;;;;;;14.19;77.83;97190.77;1724793;83;21230;-75
2021/05/03 00:05:26;;;;;;;7.33;1.37;;;;;;;14.13;79.12;97175.52;1724798;83;21462;-75
2021/05/03 00:07:54;;;;;;;4.92;1.72;;;;;;;14.06;80.63;97186.61;1724920;83;21131;-75
2021/05/03 00:10:23;;;;;;;2.30;1.57;;;;;;;13.99;81.92;97188.30;1724915;83;21123;-75
2021/05/03 00:12:51;;;;;;;6.00;1.70;;;;;;;13.94;81.67;97185.04;1724860;83;21556;-75
2021/05/03 00:15:19;;;;;;;5.30;1.70;;;;;;;13.88;82.92;97183.19;1724991;83;21508;-75
2021/05/03 00:17:46;;;;;;;3.40;1.62;;;;;;;13.80;82.85;97182.30;1724942;83;21496;-75
2021/05/03 00:20:15;;;;;;;6.20;1.77;;;;;;;13.77;81.74;97180.66;1724867;83;21151;-74
2021/05/03 00:22:44;;;;;;;1.75;1.15;;;;;;;13.73;80.92;97191.96;1697818;83;21134;-75
2021/05/03 00:25:13;;;;;;;3.47;1.22;;;;;;;13.74;80.04;97196.80;1718734;82;21170;-74
2021/05/03 00:27:41;;;;;;;6.72;1.77;;;;;;;13.75;78.19;97194.55;1711412;84;21132;-75
2021/05/03 00:30:11;;;;;;;3.25;1.20;;;;;;;13.79;77.49;97198.73;1711424;84;21156;-76
2021/05/03 00:32:38;;;;;;;5.12;1.15;;;;;;;13.82;75.72;97192.38;1714738;83;21560;-75
2021/05/03 00:35:06;;;;;;;2.42;0.93;;;;;;;13.86;74.12;97196.13;1711347;83;21141;-75
2021/05/03 00:37:34;;;;;;;3.45;0.90;;;;;;;13.94;71.38;97206.81;1711413;84;21493;-75
2021/05/03 00:40:04;;;;;;;1.80;0.60;;;;;;;14.02;71.21;97214.37;1711299;84;21143;-75
2021/05/03 00:42:33;;;;;;;2.83;0.72;;;;;;;14.06;71.62;97217.25;1711516;83;21164;-75
2021/05/03 00:45:10;;;;;;;3.80;1.60;;;;;;;14.10;68.32;97228.13;1711276;84;21187;-76
2021/05/03 00:47:39;;;;;;;5.75;1.00;;;;;;;14.05;69.11;97219.53;1677226;85;21134;-75
2021/05/03 00:50:11;;;;;;;2.35;0.98;;;;;;;13.87;68.89;97228.93;1672787;86;21151;-75
2021/05/03 00:52:42;;;;;;;3.08;1.10;;;;;;;13.68;69.83;97221.11;1673380;86;21174;-74
2021/05/03 00:55:12;;;;;;;3.90;1.50;;;;;;;13.51;69.75;97227.34;1674332;86;21151;-75
2021/05/03 00:57:40;;;;;;;2.30;1.30;;;;;;;13.32;69.37;97233.62;1679146;85;21451;-74
2021/05/03 01:00:12;;;;;;;2.87;1.20;;;;;;;13.13;70.09;97241.27;1645510;86;21155;-74
2021/05/03 01:02:40;;;;;;;2.60;1.12;;;;;;;12.97;69.17;97238.98;1673684;86;21131;-75
2021/05/03 01:05:10;;;;;;;3.75;1.12;;;;;;;12.74;68.73;97242.37;1678582;85;21183;-75
2021/05/03 01:07:39;;;;;;;3.45;1.60;;;;;;;12.56;69.81;97255.63;1673857;86;21191;-74
2021/05/03 01:10:07;;;;;;;2.37;1.00;;;;;;;12.43;69.57;97261.16;1679371;85;21289;-75
2021/05/03 01:12:37;;;;;;;3.47;1.32;;;;;;;12.26;69.16;97265.50;1674319;85;21147;-75
2021/05/03 01:15:08;;;;;;;1.80;1.30;;;;;;;11.98;69.00;97265.00;1673787;86;21119;-74
2021/05/03 01:17:41;;;;;;;3.80;1.20;;;;;;;11.92;70.60;97269.73;1677861;85;21457;-74
2021/05/03 01:20:15;;;;;;;2.37;1.20;;;;;;;11.83;69.70;97278.99;1649067;87;21146;-74
2021/05/03 01:22:42;;;;;;;3.00;1.55;;;;;;;11.69;70.06;97284.92;1677649;85;21150;-75
2021/05/03 01:25:12;;;;;;;2.20;1.17;;;;;;;11.60;70.55;97280.90;1672976;84;21182;-75
2021/05/03 01:27:40;;;;;;;1.75;0.90;;;;;;;11.57;70.66;97279.70;1685206;85;21154;-73
2021/05/03 01:30:11;;;;;;;5.15;1.52;;;;;;;11.50;69.83;97287.06;1655989;87;21122;-74
2021/05/03 01:32:39;;;;;;;1.72;1.20;;;;;;;11.41;70.05;97288.83;1685065;85;21130;-75
2021/05/03 01:35:10;;;;;;;1.62;1.10;;;;;;;11.29;70.33;97289.75;1672640;86;21163;-75
2021/05/03 01:37:37;;;;;;;1.80;1.10;;;;;;;11.24;70.18;97298.86;1643820;86;21174;-75
2021/05/03 01:40:07;;;;;;;1.32;1.00;;;;;;;11.18;70.79;97295.52;1684847;85;21122;-75
2021/05/03 01:42:36;;;;;;;1.05;0.95;;;;;;;11.14;70.82;97297.92;1642855;86;21195;-75
2021/05/03 01:45:06;;;;;;;1.52;1.00;;;;;;;11.07;70.82;97296.45;1684839;85;21146;-74
2021/05/03 01:47:35;;;;;;;1.10;0.93;;;;;;;11.00;70.03;97293.20;1672806;85;21163;-74
2021/05/03 01:50:03;;;;;;;2.20;1.07;;;;;;;10.89;68.80;97294.13;1657527;85;21126;-74
2021/05/03 01:52:32;;;;;;;1.30;1.02;;;;;;;10.77;69.61;97310.08;1672681;86;21506;-74
2021/05/03 01:54:59;;;;;;;1.22;0.90;;;;;;;10.70;68.83;97329.34;1711903;83;21139;-75
2021/05/03 01:57:26;;;;;;;3.22;1.02;;;;;;;10.60;69.41;97337.27;1711518;84;21506;-74
2021/05/03 01:59:54;;;;;;;2.60;1.02;;;;;;;10.49;69.71;97338.56;1711533;84;21162;-75
2021/05/03 02:02:22;;;;;;;2.20;1.47;;;;;;;10.40;69.89;97339.77;1719152;83;21158;-75
2021/05/03 02:04:49;;;;;;;1.40;0.98;;;;;;;10.33;69.59;97343.56;1719311;83;21143;-75
2021/05/03 02:07:17;;;;;;;1.50;0.85;;;;;;;10.25;68.97;97352.27;1719536;83;21154;-74
2021/05/03 02:09:46;;;;;;;2.02;1.10;;;;;;;10.11;69.30;97359.42;1719459;83;21147;-75
2021/05/03 02:12:14;;;;;;;4.03;1.20;;;;;;;10.00;69.44;97359.81;1719241;83;21147;-74
2021/05/03 02:14:43;;;;;;;1.50;1.12;;;;;;;9.90;69.55;97354.02;1719355;83;21131;-74
2021/05/03 02:17:11;;;;;;;3.02;1.17;;;;;;;9.79;69.88;97362.34;1719420;83;21162;-74
2021/05/03 02:19:40;;;;;;;2.92;1.02;;;;;;;9.73;70.06;97379.33;1719433;83;21550;-74
2021/05/03 02:22:07;;;;;;;1.07;0.98;;;;;;;9.61;69.94;97380.63;1719775;83;21313;-74
2021/05/03 02:24:34;;;;;;;2.35;1.15;;;;;;;9.53;70.05;97389.73;1719269;83;21519;-74
2021/05/03 02:27:02;;;;;;;2.47;1.75;;;;;;;9.42;69.88;97400.23;1724981;83;21155;-75
2021/05/03 02:29:29;;;;;;;2.62;1.20;;;;;;;9.30;71.21;97401.52;1724983;83;21508;-75
2021/05/03 02:31:57;;;;;;;2.52;1.20;;;;;;;9.27;70.68;97406.93;1724943;83;21158;-75
2021/05/03 02:34:24;;;;;;;1.82;1.25;;;;;;;9.22;70.63;97402.26;1725065;83;21473;-75
2021/05/03 02:36:55;;;;;;;1.40;1.20;;;;;;;9.17;71.37;97410.33;1725044;83;21115;-75
2021/05/03 02:39:21;;;;;;;1.62;1.35;;;;;;;9.09;71.10;97411.03;1724785;83;21556;-75
2021/05/03 02:41:48;;;;;;;2.05;1.40;;;;;;;9.06;71.09;97411.99;1724943;83;21151;-75
2021/05/03 02:44:16;;;;;;;2.65;1.45;;;;;;;9.05;71.29;97418.20;1725062;83;21138;-75
2021/05/03 02:46:43;;;;;;;1.57;1.20;;;;;;;9.02;71.42;97428.02;1724922;83;21508;-75
2021/05/03 02:49:11;;;;;;;3.30;1.52;;;;;;;8.98;71.73;97424.62;1724966;83;21175;-75
2021/05/03 02:51:38;;;;;;;1.72;1.35;;;;;;;8.93;72.05;97435.31;1725107;83;21147;-75
2021/05/03 02:54:06;;;;;;;3.70;1.90;;;;;;;8.88;72.02;97430.64;1724853;83;21134;-75
2021/05/03 02:56:34;;;;;;;1.60;1.37;;;;;;;8.81;73.43;97441.01;1724962;83;21165;-74
2021/05/03 02:59:01;;;;;;;3.20;1.40;;;;;;;8.78;72.78;97429.20;1724932;83;21163;-75
2021/05/03 03:01:29;;;;;;;3.00;1.50;;;;;;;8.75;73.85;97440.73;1724814;83;21155;-75
2021/05/03 03:03:56;;;;;;;2.55;1.80;;;;;;;8.72;73.81;97447.42;1724968;83;21465;-76
2021/05/03 03:06:24;;;;;;;2.60;1.42;;;;;;;8.66;73.11;97456.87;1725044;83;21154;-76
2021/05/03 03:08:51;;;;;;;3.15;1.50;;;;;;;8.61;73.01;97462.30;1724830;83;21135;-75
2021/05/03 03:11:20;;;;;;;9.25;1.98;;;;;;;8.61;73.22;97464.95;1724997;83;21134;-75
2021/05/03 03:13:48;;;;;;;1.70;1.60;;;;;;;8.59;73.77;97469.39;1724900;83;21489;-74
2021/05/03 03:16:25;;;;;;;4.80;1.72;;;;;;;8.53;73.35;97470.46;1725034;83;21146;-75
2021/05/03 03:18:55;;;;;;;4.45;1.82;;;;;;;8.49;73.45;97470.55;1725075;83;21119;-75
2021/05/03 03:21:24;;;;;;;2.25;1.52;;;;;;;8.43;73.48;97478.22;1724815;83;21119;-75
2021/05/03 03:23:52;;;;;;;3.62;2.10;;;;;;;8.40;73.71;97483.58;1725022;83;21528;-74
2021/05/03 03:26:20;;;;;;;3.92;1.87;;;;;;;8.30;74.05;97494.39;1724961;83;21480;-75
2021/05/03 03:28:49;;;;;;;3.40;1.80;;;;;;;8.26;74.19;97495.86;1724923;83;21156;-74
2021/05/03 03:31:18;;;;;;;2.25;1.80;;;;;;;8.22;75.28;97500.81;1724963;83;21545;-75
2021/05/03 03:33:45;;;;;;;2.58;1.80;;;;;;;8.21;75.65;97501.73;1724946;83;21139;-75
2021/05/03 03:36:13;;;;;;;3.90;1.62;;;;;;;8.22;75.92;97513.54;1724832;83;21100;-75
2021/05/03 03:38:40;;;;;;;4.78;2.10;;;;;;;8.25;76.39;97521.38;1725233;83;21194;-74
2021/05/03 03:41:09;;;;;;;4.50;2.42;;;;;;;8.26;76.73;97531.50;1724988;83;21139;-75
2021/05/03 03:43:36;;;;;;;2.30;1.77;;;;;;;8.23;77.25;97531.13;1724865;83;21139;-75
2021/05/03 03:46:04;;;;;;;1.92;1.72;;;;;;;8.25;77.70;97545.14;1725188;83;21169;-75
2021/05/03 03:48:32;;;;;;;3.08;2.25;;;;;;;8.28;77.71;97538.47;1698507;83;21135;-75
2021/05/03 03:50:59;;;;;;;3.02;1.95;;;;;;;8.31;76.23;97542.33;1724883;83;21509;-74
2021/05/03 03:53:27;;;;;;;2.10;1.90;;;;;;;8.38;76.32;97540.86;1725021;83;21156;-74
2021/05/03 03:55:54;;;;;;;4.78;2.27;;;;;;;8.43;76.82;97547.72;1724776;83;21135;-75
2021/05/03 03:58:22;;;;;;;2.92;2.47;;;;;;;8.48;74.82;97557.30;1724998;83;21171;-88
2021/05/03 04:00:49;;;;;;;2.35;2.15;;;;;;;8.48;75.33;97557.30;1724945;83;21122;-88
2021/05/03 04:03:20;;;;;;;2.70;2.37;;;;;;;8.51;75.35;97572.59;1725055;83;21111;-88
2021/05/03 04:14:08;;;;;;;2.97;2.00;;;;;;;8.64;74.65;97578.89;1794602;80;21111;-89
2021/05/03 04:22:15;;;;;;;3.72;2.90;;;;;;;8.60;74.33;97571.96;1794262;80;21115;-89
2021/05/03 04:24:26;;;;;;;3.02;2.58;;;;;;;8.56;72.81;97577.32;1789645;80;21134;-89
2021/05/03 04:26:51;;;;;;;2.85;2.55;;;;;;;8.54;73.64;97571.67;1794374;80;21099;-89
2021/05/03 04:29:20;;;;;;;2.87;2.58;;;;;;;8.52;74.29;97569.06;1794257;80;21150;-88
2021/05/03 04:31:49;;;;;;;3.75;2.50;;;;;;;8.55;74.51;97578.23;1794208;80;21123;-89
2021/05/03 04:34:16;;;;;;;3.83;2.40;;;;;;;8.59;74.38;97576.37;1794216;80;21138;-89
2021/05/03 04:36:43;;;;;;;3.40;3.10;;;;;;;8.62;73.90;97580.70;1794203;80;21132;-89
2021/05/03 04:39:11;;;;;;;4.12;2.67;;;;;;;8.60;73.80;97586.05;1794670;80;21511;-89
2021/05/03 04:41:38;;;;;;;2.98;2.67;;;;;;;8.57;72.82;97588.77;1794227;80;21261;-88
2021/05/03 04:44:06;;;;;;;2.45;2.22;;;;;;;8.58;72.81;97595.77;1794691;80;21099;-89
2021/05/03 04:46:33;;;;;;;5.53;2.67;;;;;;;8.60;72.99;97594.41;1794156;80;21155;-89
2021/05/03 04:49:02;;;;;;;3.62;2.90;;;;;;;8.64;73.54;97598.70;1794285;80;21138;-89
2021/05/03 04:51:29;;;;;;;2.75;2.47;;;;;;;8.69;73.37;97596.80;1794321;80;21122;-89
2021/05/03 04:53:56;;;;;;;4.50;3.00;;;;;;;8.70;73.60;97602.05;1794103;80;21628;-89
2021/05/03 04:56:24;;;;;;;11.48;5.87;;;;;;;8.74;73.57;97601.50;1794230;80;21587;-89
2021/05/03 04:58:51;;;;;;;3.27;2.55;;;;;;;8.76;73.05;97606.74;1794279;80;21159;-89
2021/05/03 05:01:19;;;;;;;5.03;2.77;;;;;;;8.75;71.95;97601.05;1794263;80;21501;-90
2021/05/03 05:03:46;;;;;;;3.22;2.62;;;;;;;8.77;72.69;97608.03;1794562;80;21123;-89
2021/05/03 05:06:13;;;;;;;5.85;2.52;;;;;;;8.77;71.91;97601.42;1794372;80;21738;-89
2021/05/03 05:08:41;;;;;;;3.92;2.70;;;;;;;8.83;72.93;97597.72;1789262;80;21154;-89
2021/05/03 05:11:09;;;;;;;3.42;2.77;;;;;;;8.85;73.00;97599.40;1789172;80;21140;-89
2021/05/03 05:13:36;;;;;;;5.15;2.52;;;;;;;8.90;72.48;97603.69;1789330;80;21142;-89
2021/05/03 05:16:05;;;;;;;6.08;2.72;;;;;;;8.91;71.34;97601.45;1789280;80;21612;-89
2021/05/03 05:18:34;;;;;;;3.72;2.58;;;;;;;8.97;72.21;97601.30;1788931;80;21147;-89
2021/05/03 05:21:02;;;;;;;2.83;2.52;;;;;;;9.00;70.75;97601.19;1788583;80;21497;-89
2021/05/03 05:23:29;;;;;;;3.15;2.50;;;;;;;9.05;70.90;97615.61;1788600;80;21166;-89
2021/05/03 05:25:57;;;;;;;3.05;2.60;;;;;;;9.06;70.10;97614.21;1788817;80;21127;-89
2021/05/03 05:28:24;;;;;;;3.08;2.70;;;;;;;9.06;70.35;97606.28;1788508;80;21139;-89
2021/05/03 05:30:52;;;;;;;3.12;2.37;;;;;;;9.06;71.21;97618.17;1788631;80;21146;-89
2021/05/03 05:33:20;;;;;;;3.52;2.92;;;;;;;9.10;70.30;97621.14;1788738;80;21529;-89
2021/05/03 05:35:47;;;;;;;3.15;2.60;;;;;;;9.14;69.80;97629.00;1788618;80;21126;-89
2021/05/03 05:38:15;;;;;;;2.95;2.35;;;;;;;9.17;69.96;97619.66;1788917;80;21175;-89
2021/05/03 05:40:42;;;;;;;4.90;2.65;;;;;;;9.22;70.24;97628.33;1788912;80;21130;-89
2021/05/03 05:43:10;;;;;;;4.00;2.60;;;;;;;9.27;70.66;97624.20;1788580;80;21143;-89
2021/05/03 05:45:37;;;;;;;2.95;2.65;;;;;;;9.33;70.33;97628.85;1788695;80;21139;-89
2021/05/03 05:48:06;;;;;;;2.80;2.50;;;;;;;9.42;69.51;97631.66;1788421;80;21166;-89
2021/05/03 05:50:34;;;;;;;3.90;2.98;;;;;;;9.40;67.86;97635.27;1788612;80;21118;-89
2021/05/03 05:53:03;;;;;;;6.15;4.17;;;;;;;9.45;69.12;97630.70;1788273;80;21138;-89
2021/05/03 05:55:30;;;;;;;4.80;3.25;;;;;;;9.51;69.04;97642.44;1788427;80;21092;-89
2021/05/03 05:57:58;;;;;;;3.52;2.25;;;;;;;9.57;69.18;97640.04;1788692;80;21494;-89
2021/05/03 06:00:25;;;;;;;4.85;2.35;;;;;;;9.60;68.13;97640.80;1788708;80;21493;-88
2021/05/03 06:02:53;;;;;;;4.25;2.45;;;;;;;9.68;69.44;97640.55;1788614;80;21131;-90
2021/05/03 06:05:22;;;;;;;2.58;2.20;;;;;;;9.78;69.67;97633.20;1788594;80;21103;-89
2021/05/03 06:07:50;;;;;;;4.65;2.42;;;;;;;9.83;69.49;97640.53;1784354;80;21167;-88
2021/05/03 06:10:18;;;;;;;3.60;2.27;;;;;;;9.90;69.14;97654.00;1780037;80;21108;-89
2021/05/03 06:12:45;;;;;;;2.30;2.08;;;;;;;10.01;68.39;97648.33;1780029;81;21470;-88
2021/05/03 06:15:13;;;;;;;3.05;2.72;;;;;;;10.17;66.09;97655.76;1780038;81;21104;-88
2021/05/03 06:17:40;;;;;;;2.75;2.08;;;;;;;10.24;64.68;97655.09;1779960;81;21147;-89
2021/05/03 06:20:10;;;;;;;2.85;1.87;;;;;;;10.25;64.11;97655.05;1780307;81;21096;-88
2021/05/03 06:22:38;;;;;;;3.47;2.30;;;;;;;10.35;65.53;97652.09;1780053;81;21127;-89
2021/05/03 06:25:08;;;;;;;3.42;2.40;;;;;;;10.45;63.49;97657.95;1780452;81;21135;-88
2021/05/03 06:27:36;;;;;;;2.95;2.05;;;;;;;10.52;62.75;97655.08;1780748;81;21474;-88
2021/05/03 06:30:05;;;;;;;2.30;2.10;;;;;;;10.61;63.85;97655.20;1780004;81;21139;-88
2021/05/03 06:32:33;;;;;;;2.95;2.02;;;;;;;10.61;63.23;97652.55;1758545;81;21122;-88
2021/05/03 06:35:01;;;;;;;3.33;2.12;;;;;;;10.61;64.17;97653.00;1780063;81;21120;-88
2021/05/03 06:37:28;;;;;;;2.30;2.10;;;;;;;10.67;63.66;97649.67;1779979;81;21613;-88
2021/05/03 06:39:55;;;;;;;4.22;2.50;;;;;;;10.73;64.22;97645.07;1780037;81;21139;-88
2021/05/03 06:42:23;;;;;;;3.65;2.15;;;;;;;10.81;64.44;97643.86;1780125;81;21134;-88
2021/05/03 06:44:50;;;;;;;2.40;1.90;;;;;;;10.94;63.80;97639.45;1779898;81;21151;-89
2021/05/03 06:47:18;;;;;;;3.25;2.10;;;;;;;11.05;61.04;97645.22;1780479;81;21099;-89
2021/05/03 06:49:46;;;;;;;3.90;2.10;;;;;;;11.17;62.61;97643.05;1780225;81;21447;-89
2021/05/03 06:52:14;;;;;;;2.08;1.80;;;;;;;11.34;61.48;97645.91;1780007;81;21135;-89
2021/05/03 06:54:43;;;;;;;1.95;1.75;;;;;;;11.52;61.67;97659.40;1780015;81;21135;-90
2021/05/03 06:57:10;;;;;;;5.03;2.17;;;;;;;11.58;61.05;97654.30;1780025;81;21143;-90
2021/05/03 06:59:38;;;;;;;2.65;2.33;;;;;;;11.64;59.39;97658.05;1779891;81;21119;-89
2021/05/03 07:02:05;;;;;;;3.40;1.60;;;;;;;11.51;59.50;97658.12;1780095;81;21485;-90
2021/05/03 07:04:34;;;;;;;3.12;2.50;;;;;;;11.42;57.61;97660.20;1780063;81;21159;-88
2021/05/03 07:07:01;;;;;;;3.85;2.52;;;;;;;11.43;58.35;97643.38;1780405;80;21131;-89
2021/05/03 07:09:32;;;;;;;2.17;1.87;;;;;;;11.45;58.99;97640.19;1780335;81;21096;-89
2021/05/03 07:12:08;;;;;;;2.70;1.90;;;;;;;11.48;57.88;97641.86;1780082;81;21135;-89
2021/05/03 07:14:38;;;;;;;4.05;2.30;;;;;;;11.54;58.04;97636.30;1780151;80;21131;-90
2021/05/03 07:17:06;;;;;;;1.72;1.62;;;;;;;11.62;59.00;97639.53;1780125;81;21462;-89
2021/05/03 07:19:35;;;;;;;2.20;2.00;;;;;;;11.69;58.46;97647.24;1779947;81;21182;-89
2021/05/03 07:22:06;;;;;;;2.58;2.08;;;;;;;11.69;55.65;97641.48;1780085;81;21513;-90
2021/05/03 07:24:37;;;;;;;2.75;2.20;;;;;;;11.77;58.29;97640.30;1780089;81;21123;-89
2021/05/03 07:27:11;;;;;;;2.20;2.00;;;;;;;11.87;57.25;97636.34;1779847;81;21139;-90
2021/05/03 07:29:39;;;;;;;2.65;2.30;;;;;;;11.87;54.58;97643.86;1780417;81;21516;-91
2021/05/03 07:32:07;;;;;;;2.52;2.25;;;;;;;11.92;55.59;97646.31;1780123;81;21131;-91
2021/05/03 07:34:37;;;;;;;2.33;2.08;;;;;;;11.95;55.58;97640.89;1779992;81;21143;-87
2021/05/03 07:37:06;;;;;;;2.83;2.35;;;;;;;11.95;53.59;97632.92;1780018;81;21159;-90
2021/05/03 07:39:34;;;;;;;3.27;2.52;;;;;;;11.93;55.05;97641.42;1780026;81;21132;-90
2021/05/03 07:42:03;;;;;;;2.70;2.50;;;;;;;11.89;53.57;97630.04;1779865;81;21131;-90
2021/05/03 07:44:33;;;;;;;2.30;2.10;;;;;;;11.94;54.32;97631.64;1776515;80;21521;-90
2021/05/03 07:47:00;;;;;;;2.80;2.15;;;;;;;12.04;54.45;97640.12;1779912;81;21167;-90
2021/05/03 07:49:28;;;;;;;2.50;2.30;;;;;;;12.12;55.54;97641.55;1779821;81;21134;-90
2021/05/03 07:51:56;;;;;;;2.10;1.90;;;;;;;12.23;53.21;97637.58;1779963;81;21514;-91
2021/05/03 07:54:23;;;;;;;7.03;4.53;;;;;;;12.33;53.07;97625.63;1779812;81;21142;-90
2021/05/03 07:56:50;;;;;;;35.48;21.82;;;;;;;12.46;53.08;97633.09;1780042;81;21156;-90
2021/05/03 07:59:18;;;;;;;2.00;1.80;;;;;;;12.55;51.15;97639.34;1779973;81;21107;-90
2021/05/03 08:01:47;;;;;;;2.12;1.80;;;;;;;12.57;50.67;97629.48;1779837;81;21150;-76
2021/05/03 08:04:14;;;;;;;1.70;1.60;;;;;;;12.65;51.85;97636.67;1780051;81;21135;-76
2021/05/03 08:06:42;;;;;;;2.05;1.80;;;;;;;12.73;52.29;97649.62;1780042;81;21497;-76
2021/05/03 08:09:09;;;;;;;1.92;1.27;;;;;;;12.80;50.16;97653.73;1779857;81;21182;-76
2021/05/03 08:11:43;;;;;;;1.62;1.40;;;;;;;12.78;50.74;97644.09;1779937;81;21130;-76
2021/05/03 08:14:07;;;;;;;2.00;1.25;;;;;;;12.79;51.10;97649.83;1779481;80;21209;-74
2021/05/03 08:16:37;;;;;;;1.60;1.50;;;;;;;12.89;51.64;97650.27;1779878;81;21494;-74
2021/05/03 08:19:04;;;;;;;1.30;1.20;;;;;;;13.04;51.18;97642.08;1780040;81;21489;-75
2021/05/03 08:21:34;;;;;;;1.77;1.20;;;;;;;13.20;51.56;97654.20;1778834;80;21142;-75
2021/05/03 08:24:04;;;;;;;4.58;1.30;;;;;;;13.38;49.04;97651.17;1780054;81;21131;-75
2021/05/03 08:26:32;;;;;;;1.10;1.00;;;;;;;13.53;47.34;97661.59;1779898;81;21146;-76
2021/05/03 08:29:00;;;;;;;0.80;0.80;;;;;;;13.75;46.04;97659.25;1780232;81;21193;-76
2021/05/03 08:31:27;;;;;;;1.22;1.10;;;;;;;13.82;46.03;97652.68;1779849;81;21143;-90
2021/05/03 08:33:55;;;;;;;1.50;1.00;;;;;;;13.82;45.82;97643.36;1780224;81;21509;-90
2021/05/03 08:36:22;;;;;;;1.30;1.00;;;;;;;13.88;46.08;97646.66;1780099;81;21123;-90
2021/05/03 08:38:50;;;;;;;1.07;0.95;;;;;;;14.01;47.58;97639.80;1779997;81;21187;-89
2021/05/03 08:41:17;;;;;;;1.30;1.20;;;;;;;14.13;45.94;97649.83;1779962;81;21104;-90
2021/05/03 08:43:47;;;;;;;1.05;0.95;;;;;;;14.17;46.43;97634.58;1780020;81;21612;-89
2021/05/03 08:46:26;;;;;;;1.20;1.10;;;;;;;14.15;43.94;97644.92;1779950;81;21107;-89
2021/05/03 08:48:58;;;;;;;1.10;0.95;;;;;;;14.16;45.50;97651.48;1778613;80;21498;-90
2021/05/03 08:51:28;;;;;;;1.05;0.90;;;;;;;14.28;46.34;97647.34;1778198;80;21506;-90
2021/05/03 08:53:54;;;;;;;1.98;1.30;;;;;;;14.42;46.44;97650.66;1778525;80;21477;-90
2021/05/03 08:56:13;;;;;;;1.98;1.20;;;;;;;14.61;44.19;97626.56;1778820;80;21185;-90
2021/05/03 08:58:41;;;;;;;2.45;1.27;;;;;;;14.71;42.81;97652.30;1780202;81;21139;-89
2021/05/03 09:01:08;;;;;;;1.40;1.30;;;;;;;14.67;45.29;97653.40;1780140;81;21132;-84
2021/05/03 09:03:40;;;;;;;1.47;1.37;;;;;;;14.65;45.78;97641.47;1780272;81;21163;-85
2021/05/03 09:06:11;;;;;;;1.20;1.10;;;;;;;14.68;45.31;97642.23;1780097;81;21159;-84
2021/05/03 09:08:39;;;;;;;1.62;1.30;;;;;;;14.80;45.27;97645.65;1783066;80;21138;-86
2021/05/03 09:11:07;;;;;;;1.30;1.20;;;;;;;14.89;45.20;97646.50;1785919;80;21481;-82
2021/05/03 09:13:37;;;;;;;38.83;25.82;;;;;;;15.02;45.46;97644.49;1785900;80;21138;-83
2021/05/03 09:16:22;;;;;;;49.58;38.25;;;;;;;15.18;44.35;97648.08;1785979;80;21127;-82
2021/05/03 09:18:58;;;;;;;13.72;10.40;;;;;;;15.31;43.68;97643.39;1825039;77;23282;-80
2021/05/03 09:21:32;;;;;;;75.62;53.35;;;;;;;15.31;45.26;97635.39;1828957;78;21284;-80
2021/05/03 09:24:17;;;;;;;1.80;1.45;;;;;;;15.33;45.23;97637.98;1781726;80;21133;-83
2021/05/03 09:27:05;;;;;;;2.42;1.37;;;;;;;15.20;42.63;97641.30;1771554;80;21108;-84
2021/05/03 09:29:39;;;;;;;10.43;6.62;;;;;;;15.05;42.35;97643.01;1761648;81;21143;-83
2021/05/03 09:32:19;;;;;;;8.28;6.10;;;;;;;14.90;43.34;97642.88;1761850;81;21617;-84
2021/05/03 09:34:54;;;;;;;1.92;1.55;;;;;;;14.88;44.34;97656.78;1766303;79;21297;-83
2021/05/03 09:37:35;;;;;;;10.38;6.15;;;;;;;14.80;44.47;97658.11;1770935;79;21166;-80
2021/05/03 09:40:12;;;;;;;7.12;5.65;;;;;;;14.49;42.16;97646.72;1774569;80;21477;-81
2021/05/03 09:42:53;;;;;;;2.98;2.17;;;;;;;14.64;45.66;97650.42;1774921;81;21138;-81
2021/05/03 09:45:30;;;;;;;5.30;1.60;;;;;;;14.74;44.18;97653.45;1774980;81;21615;-82
2021/05/03 09:48:01;;;;;;;2.87;1.55;;;;;;;14.96;41.99;97680.39;1774813;81;21269;-80
2021/05/03 09:50:32;;;;;;;2.10;1.90;;;;;;;15.14;41.95;97646.98;1775024;81;21288;-81
2021/05/03 09:53:15;;;;;;;19.17;14.25;;;;;;;15.31;43.26;97650.07;1775014;81;21588;-80
2021/05/03 09:55:51;;;;;;;8.75;4.87;;;;;;;15.42;43.80;97661.05;1771319;80;21105;-82
2021/05/03 09:58:23;;;;;;;5.40;4.65;;;;;;;15.46;43.94;97662.19;1768703;81;21122;-81
2021/05/03 10:00:57;;;;;;;1.47;1.35;;;;;;;15.45;42.84;97666.69;1773373;81;21236;-73
2021/05/03 10:03:46;;;;;;;1.52;1.40;;;;;;;15.33;40.22;97658.00;1769550;79;21109;-72
2021/05/03 10:06:20;;;;;;;2.25;1.65;;;;;;;15.33;42.89;97654.00;1790369;79;21117;-73
2021/05/03 10:08:52;;;;;;;2.95;1.70;;;;;;;15.28;43.61;97664.45;1811792;79;21105;-74
2021/05/03 10:11:29;;;;;;;1.60;1.50;;;;;;;15.22;43.68;97666.58;1808532;79;21658;-73
2021/05/03 10:13:54;;;;;;;2.22;1.98;;;;;;;15.21;43.57;97683.55;1750942;81;21119;-73
2021/05/03 10:16:25;;;;;;;3.12;1.82;;;;;;;15.32;44.57;97673.15;1733341;81;21111;-72
2021/05/03 10:18:53;;;;;;;1.92;1.62;;;;;;;15.19;42.34;97683.63;1696206;83;21507;-73
2021/05/03 10:21:25;;;;;;;1.98;1.77;;;;;;;14.95;42.27;97676.47;1709524;83;21496;-71
2021/05/03 10:23:58;;;;;;;2.65;1.72;;;;;;;14.88;43.14;97681.26;1704448;83;21186;-73
2021/05/03 10:26:30;;;;;;;8.53;6.62;;;;;;;14.89;44.36;97665.63;1701665;83;21112;-72
2021/05/03 10:29:03;;;;;;;5.47;4.00;;;;;;;15.00;45.03;97673.08;1705579;83;21501;-72
2021/05/03 10:31:57;;;;;;;2.40;1.90;;;;;;;14.75;43.10;97679.67;1700532;83;21174;-72
2021/05/03 10:34:45;;;;;;;20.97;13.93;;;;;;;14.83;44.61;97676.17;1707720;83;21143;-71
2021/05/03 10:37:39;;;;;;;2.67;2.02;;;;;;;14.80;45.22;97682.99;1702221;83;21481;-73
2021/05/03 10:40:18;;;;;;;1.60;1.50;;;;;;;14.85;45.33;97669.41;1725459;83;21119;-73
2021/05/03 10:43:26;;;;;;;1.57;1.42;;;;;;;14.82;42.84;97682.42;1728853;83;21486;-72
2021/05/03 10:51:33;;;;;;;1.87;1.47;;;;;;;15.08;41.43;97671.34;1653383;87;21141;-71
2021/05/03 10:54:43;;;;;;;1.70;1.60;;;;;;;15.19;42.69;97658.27;1649026;87;21560;-72
2021/05/03 10:57:13;;;;;;;1.62;1.40;;;;;;;15.27;42.85;97657.85;1628046;88;21213;-72
2021/05/03 10:59:55;;;;;;;1.40;1.22;;;;;;;15.52;42.82;97653.84;1645066;87;21646;-72
2021/05/03 11:02:38;;;;;;;1.50;1.30;;;;;;;16.73;41.90;97658.98;1684642;85;21145;-72
2021/05/03 11:05:26;;;;;;;2.02;1.30;;;;;;;17.07;37.68;97641.37;1675044;85;21163;-72
2021/05/03 11:08:10;;;;;;;1.65;1.32;;;;;;;17.49;36.74;97633.44;1685446;85;21465;-72
2021/05/03 11:11:07;;;;;;;1.35;1.22;;;;;;;19.04;34.63;97622.81;1651768;87;21664;-72
2021/05/03 11:13:57;;;;;;;1.85;1.40;;;;;;;19.19;32.28;97626.22;1685296;85;21083;-72
2021/05/03 11:16:32;;;;;;;2.42;1.50;;;;;;;20.06;30.83;97627.23;1685356;85;21103;-72
2021/05/03 11:19:55;;;;;;;1.75;1.47;;;;;;;20.65;27.80;97619.23;1651693;87;21185;-73
2021/05/03 11:22:26;;;;;;;16.25;10.50;;;;;;;21.83;29.07;97622.62;1666171;85;21291;-73
2021/05/03 11:25:03;;;;;;;2.12;1.10;;;;;;;22.91;27.01;97630.78;1666324;86;21307;-73
2021/05/03 11:30:38;;;;;;;1.40;1.30;;;;;;;21.50;25.19;97631.48;1685666;85;21138;-71
2021/05/03 11:33:09;;;;;;;2.10;1.12;;;;;;;20.41;27.39;97643.02;1651691;87;21690;-71
2021/05/03 11:35:42;;;;;;;1.80;1.40;;;;;;;19.52;28.38;97643.59;1651263;87;21185;-71
2021/05/03 11:38:27;;;;;;;2.52;1.30;;;;;;;19.17;30.83;97635.36;1684977;85;21099;-71
2021/05/03 11:46:10;;;;;;;1.57;1.20;;;;;;;17.94;31.14;97631.88;1651757;87;21157;-73
2021/05/03 11:48:38;;;;;;;1.22;1.00;;;;;;;17.72;32.08;97635.09;1651924;87;21643;-72
2021/05/03 11:51:09;;;;;;;2.37;1.30;;;;;;;16.96;29.81;97625.96;1651857;87;21666;-73
2021/05/03 11:53:43;;;;;;;1.72;1.02;;;;;;;16.88;31.44;97638.94;1685315;85;21099;-72
2021/05/03 11:56:22;;;;;;;1.40;1.07;;;;;;;16.78;32.76;97640.46;1685428;85;21167;-72
2021/05/03 11:59:01;;;;;;;1.60;1.10;;;;;;;16.66;33.57;97642.06;1651820;87;21182;-72
2021/05/03 12:01:30;;;;;;;1.40;1.30;;;;;;;16.61;32.81;97634.33;1654598;86;21134;-72
2021/05/03 12:03:59;;;;;;;3.35;1.72;;;;;;;16.50;34.09;97624.27;1665838;86;21532;-73
2021/05/03 12:06:37;;;;;;;66.92;39.92;;;;;;;16.35;34.60;97627.36;1653157;86;21513;-73
2021/05/03 12:09:14;;;;;;;1.27;1.17;;;;;;;16.25;33.49;97636.88;1649143;87;21174;-72
2021/05/03 12:11:58;;;;;;;1.37;0.88;;;;;;;16.27;34.33;97637.67;1646585;86;21181;-72
2021/05/03 12:14:46;;;;;;;1.95;1.10;;;;;;;16.30;35.23;97633.46;1652582;86;21182;-72
2021/05/03 12:17:20;;;;;;;1.80;1.42;;;;;;;16.37;34.04;97632.16;1649145;87;21177;-72
2021/05/03 12:19:51;;;;;;;6.08;3.08;;;;;;;16.19;33.38;97632.77;1649208;87;21571;-72